Time;durP1;ratioP1;P1;durP2;ratioP2;P2;SDS_P1;SDS_P2;PMS_P1;PMS_P2;Temp;Humidity;BMP_temperature;BMP_pressure;BME280_temperature;BME280_humidity;BME280_pressure;Samples;Min_cycle;Max_cycle;Signal;HPM_P1;HPM_P2
2022/01/20 00:01:44;;;;;;;2.27;1.03;;;4.20;99.90;;;;;;5024226;28;20197;-59
2022/01/20 00:04:20;;;;;;;5.00;1.10;;;4.00;99.90;;;;;;5011408;28;20223;-59
2022/01/20 00:25:48;;;;;;;6.53;1.10;;;3.60;99.90;;;;;;5010476;28;20234;-59
2022/01/20 00:26:31;;;;;;;4.67;1.30;;;3.60;99.90;;;;;;5023373;28;20684;-59
2022/01/20 00:29:01;;;;;;;8.73;1.50;;;3.50;99.90;;;;;;5002070;28;20735;-59
2022/01/20 00:34:18;;;;;;;10.60;1.53;;;3.50;99.90;;;;;;5021275;28;20255;-59
2022/01/20 00:39:32;;;;;;;7.90;1.50;;;3.50;99.90;;;;;;5019284;28;20271;-59
2022/01/20 00:41:59;;;;;;;6.20;1.30;;;3.50;99.90;;;;;;5002175;28;20294;-59
2022/01/20 00:44:26;;;;;;;8.20;2.07;;;3.50;99.90;;;;;;5011552;28;20233;-59
2022/01/20 00:46:55;;;;;;;8.10;1.40;;;3.50;99.90;;;;;;5013176;28;20205;-59
2022/01/20 00:49:22;;;;;;;7.57;1.40;;;3.50;99.90;;;;;;5011069;28;20210;-59
2022/01/20 00:51:49;;;;;;;5.87;1.87;;;3.50;99.90;;;;;;5012508;28;20215;-59
2022/01/20 00:54:16;;;;;;;4.23;1.37;;;3.40;99.90;;;;;;5006496;28;20290;-59
2022/01/20 00:56:45;;;;;;;13.30;2.47;;;3.40;99.90;;;;;;5013536;28;20204;-59
2022/01/20 00:59:12;;;;;;;6.73;1.87;;;3.40;99.90;;;;;;5003119;28;20225;-59
2022/01/20 01:01:39;;;;;;;4.43;1.40;;;3.40;99.90;;;;;;5014257;28;20609;-59
2022/01/20 01:04:07;;;;;;;9.00;1.60;;;3.40;99.90;;;;;;5018763;28;20233;-59
2022/01/20 01:06:44;;;;;;;8.77;1.70;;;3.40;99.90;;;;;;4987430;28;20211;-59
2022/01/20 01:09:12;;;;;;;8.90;1.93;;;3.50;99.90;;;;;;5021185;28;20208;-59
2022/01/20 01:11:41;;;;;;;6.27;1.60;;;3.60;99.90;;;;;;5016365;28;20243;-60
2022/01/20 01:14:10;;;;;;;8.57;1.77;;;3.60;99.90;;;;;;5015035;28;21110;-60
2022/01/20 01:20:01;;;;;;;8.87;1.77;;;3.60;99.90;;;;;;4997558;28;22989;-60
2022/01/20 01:22:23;;;;;;;8.60;1.77;;;3.70;99.90;;;;;;5012149;28;20229;-60
2022/01/20 01:24:55;;;;;;;8.97;1.50;;;3.80;99.90;;;;;;5020772;28;20209;-60
2022/01/20 01:27:24;;;;;;;6.30;2.00;;;3.80;99.90;;;;;;5015978;28;20675;-60
2022/01/20 01:30:06;;;;;;;9.23;2.57;;;3.80;99.90;;;;;;5015483;28;20351;-60
2022/01/20 01:32:43;;;;;;;7.03;1.80;;;3.90;99.90;;;;;;4997067;28;20742;-60
2022/01/20 01:35:11;;;;;;;12.87;1.77;;;3.90;99.90;;;;;;5026894;28;20311;-60
2022/01/20 01:40:19;;;;;;;5.27;2.03;;;3.80;99.90;;;;;;5006044;28;20265;-60
2022/01/20 01:42:49;;;;;;;9.00;1.00;;;3.80;99.90;;;;;;5021236;28;20727;-60
2022/01/20 01:45:21;;;;;;;2.30;1.07;;;3.80;99.90;;;;;;4999690;28;20223;-61
2022/01/20 01:47:48;;;;;;;7.10;1.30;;;3.80;99.90;;;;;;5015783;28;20213;-60
2022/01/20 01:50:16;;;;;;;4.50;1.30;;;3.70;99.90;;;;;;5012938;28;20211;-61
2022/01/20 01:52:43;;;;;;;8.07;1.53;;;3.70;99.90;;;;;;5007549;28;20605;-60
2022/01/20 01:55:10;;;;;;;6.07;1.30;;;3.70;99.90;;;;;;5020108;28;20230;-60
2022/01/20 01:57:37;;;;;;;3.87;1.20;;;3.70;99.90;;;;;;4987146;28;20273;-60
2022/01/20 02:00:06;;;;;;;8.47;1.97;;;3.70;99.90;;;;;;5009518;28;20372;-60
2022/01/20 02:02:36;;;;;;;5.83;1.43;;;3.80;99.90;;;;;;4998264;28;21618;-60
2022/01/20 02:05:04;;;;;;;9.07;1.50;;;3.80;99.90;;;;;;5019913;28;20198;-60
2022/01/20 02:18:43;;;;;;;9.40;1.40;;;3.70;99.90;;;;;;5004160;28;20218;-60
2022/01/20 02:21:11;;;;;;;2.77;0.97;;;3.70;99.90;;;;;;5015555;28;20203;-60
2022/01/20 02:23:38;;;;;;;3.30;1.27;;;3.70;99.90;;;;;;5015572;28;20230;-60
2022/01/20 02:26:06;;;;;;;6.77;1.67;;;3.70;99.90;;;;;;4990771;28;20221;-61
2022/01/20 02:28:33;;;;;;;5.13;1.00;;;3.70;99.90;;;;;;5005913;28;20307;-60
2022/01/20 02:31:00;;;;;;;6.30;1.20;;;3.70;99.90;;;;;;5011999;28;20237;-60
2022/01/20 02:33:30;;;;;;;14.20;1.73;;;3.70;99.90;;;;;;5016276;28;20210;-60
2022/01/20 02:36:02;;;;;;;2.87;1.13;;;3.60;99.90;;;;;;5011080;28;20232;-60
2022/01/20 02:38:36;;;;;;;11.40;1.87;;;3.60;99.90;;;;;;4987874;28;20206;-60
2022/01/20 02:46:37;;;;;;;7.77;1.43;;;3.60;99.90;;;;;;4990219;28;20260;-60
2022/01/20 02:49:05;;;;;;;3.33;1.03;;;3.60;99.90;;;;;;4998394;28;20298;-61
2022/01/20 02:51:32;;;;;;;11.30;1.90;;;3.60;99.90;;;;;;5011744;28;20613;-60
2022/01/20 02:54:01;;;;;;;6.00;1.50;;;3.60;99.90;;;;;;5011499;28;20211;-60
2022/01/20 02:56:28;;;;;;;12.87;1.97;;;3.50;99.90;;;;;;4991940;28;20236;-60
2022/01/20 02:58:55;;;;;;;11.20;1.93;;;3.50;99.90;;;;;;5011104;28;20315;-60
2022/01/20 03:01:22;;;;;;;7.47;1.57;;;3.40;99.90;;;;;;4990879;28;20624;-60
2022/01/20 03:03:49;;;;;;;10.50;1.80;;;3.40;99.90;;;;;;5028816;28;20226;-60
2022/01/20 03:06:17;;;;;;;9.10;1.60;;;3.20;99.90;;;;;;5017199;28;20233;-61
2022/01/20 03:08:43;;;;;;;8.10;1.33;;;3.10;99.90;;;;;;5017593;28;20209;-60
2022/01/20 03:11:12;;;;;;;8.27;1.53;;;3.10;99.90;;;;;;5002457;28;20202;-60
2022/01/20 03:13:40;;;;;;;17.50;2.50;;;3.10;99.90;;;;;;5012014;28;20287;-61
2022/01/20 03:16:07;;;;;;;17.63;3.17;;;3.10;99.90;;;;;;5019150;28;20510;-60
2022/01/20 03:18:35;;;;;;;18.43;2.53;;;3.00;99.90;;;;;;5012052;28;20212;-60
2022/01/20 03:21:02;;;;;;;18.60;3.40;;;3.00;99.90;;;;;;5027545;28;20217;-60
2022/01/20 03:23:29;;;;;;;14.40;2.60;;;3.10;99.90;;;;;;4987647;28;20226;-60
2022/01/20 03:25:56;;;;;;;14.70;2.60;;;3.10;99.90;;;;;;5025720;28;20199;-60
2022/01/20 03:28:25;;;;;;;15.00;2.50;;;3.00;99.90;;;;;;4992637;28;20841;-60
2022/01/20 03:30:52;;;;;;;15.70;2.73;;;3.00;99.90;;;;;;5029165;28;20736;-60
2022/01/20 03:33:19;;;;;;;20.23;3.30;;;3.00;99.90;;;;;;4990365;28;20210;-60
2022/01/20 03:35:46;;;;;;;13.57;2.47;;;3.10;99.90;;;;;;5013170;28;20297;-60
2022/01/20 03:38:13;;;;;;;12.43;2.43;;;3.20;99.90;;;;;;5004149;28;20240;-60
2022/01/20 03:40:40;;;;;;;20.70;3.80;;;3.20;99.90;;;;;;5002968;28;21292;-60
2022/01/20 03:43:07;;;;;;;16.77;3.13;;;3.20;99.90;;;;;;5017714;28;20721;-60
2022/01/20 03:45:36;;;;;;;19.87;4.17;;;3.20;99.90;;;;;;5009677;28;20350;-60
2022/01/20 03:48:09;;;;;;;21.40;3.30;;;3.20;99.90;;;;;;5005658;28;20295;-60
2022/01/20 03:53:24;;;;;;;11.00;2.13;;;3.30;99.90;;;;;;5015053;28;20229;-60
2022/01/20 03:55:51;;;;;;;16.90;2.90;;;3.30;99.90;;;;;;5003971;28;20683;-60
2022/01/20 03:58:18;;;;;;;18.10;2.77;;;3.30;99.90;;;;;;5017553;28;20701;-60
2022/01/20 04:00:47;;;;;;;15.50;3.53;;;3.30;99.90;;;;;;4996611;28;20356;-60
2022/01/20 04:03:15;;;;;;;10.57;2.90;;;3.30;99.90;;;;;;5002541;28;20222;-59
2022/01/20 04:05:55;;;;;;;8.77;2.93;;;3.30;99.90;;;;;;5012896;28;20618;-60
2022/01/20 04:08:22;;;;;;;15.37;2.53;;;3.20;99.90;;;;;;5028130;28;20294;-60
2022/01/20 04:10:49;;;;;;;17.60;2.23;;;3.20;99.90;;;;;;4996760;28;20209;-60
2022/01/20 04:13:17;;;;;;;10.57;2.20;;;3.10;99.90;;;;;;5016791;28;20206;-60
2022/01/20 04:15:45;;;;;;;11.20;2.60;;;3.00;99.90;;;;;;5011740;28;20251;-60
2022/01/20 04:18:19;;;;;;;9.30;1.83;;;3.10;99.90;;;;;;5007192;28;20203;-59
2022/01/20 04:20:46;;;;;;;4.40;2.00;;;3.00;99.90;;;;;;4989135;28;20209;-60
2022/01/20 04:23:13;;;;;;;8.33;1.57;;;2.90;99.90;;;;;;5021992;28;20661;-60
2022/01/20 04:25:40;;;;;;;12.93;3.00;;;2.80;99.90;;;;;;4998217;28;20210;-60
2022/01/20 04:28:08;;;;;;;15.40;2.07;;;2.80;99.90;;;;;;4998341;28;20207;-59
2022/01/20 04:30:35;;;;;;;5.43;1.30;;;2.80;99.90;;;;;;4986938;28;20232;-60
2022/01/20 04:33:02;;;;;;;5.43;1.10;;;2.70;99.90;;;;;;5007278;28;20198;-59
2022/01/20 04:35:31;;;;;;;8.37;2.20;;;2.50;99.90;;;;;;4996540;28;20202;-59
2022/01/20 04:37:59;;;;;;;6.10;1.63;;;2.50;99.90;;;;;;5009559;28;20572;-60
2022/01/20 04:40:26;;;;;;;14.53;2.17;;;2.50;99.90;;;;;;5011777;28;20665;-60
2022/01/20 04:42:54;;;;;;;10.43;2.30;;;2.50;99.90;;;;;;4995477;28;20284;-60
2022/01/20 04:45:27;;;;;;;10.77;1.90;;;2.50;99.90;;;;;;5010088;28;20298;-59
2022/01/20 04:48:02;;;;;;;7.43;1.60;;;2.50;99.90;;;;;;5010501;28;20238;-60
2022/01/20 04:58:45;;;;;;;5.37;1.30;;;2.50;99.90;;;;;;5003332;28;20299;-60
2022/01/20 05:01:13;;;;;;;4.73;1.17;;;2.40;99.90;;;;;;4998835;28;21283;-59
2022/01/20 05:03:41;;;;;;;7.27;1.13;;;2.30;99.90;;;;;;5022700;28;20228;-60
2022/01/20 05:06:09;;;;;;;9.03;1.50;;;2.30;99.90;;;;;;5000635;28;20209;-59
2022/01/20 05:08:37;;;;;;;5.23;1.43;;;2.20;99.90;;;;;;5002561;28;20328;-59
2022/01/20 05:11:05;;;;;;;4.83;2.20;;;2.20;99.90;;;;;;5006811;28;20246;-59
2022/01/20 05:13:35;;;;;;;6.53;2.03;;;2.20;99.90;;;;;;5009425;28;20213;-60
2022/01/20 05:16:03;;;;;;;9.20;2.47;;;2.20;99.90;;;;;;5023181;28;20234;-60
2022/01/20 05:18:30;;;;;;;6.50;1.70;;;2.20;99.90;;;;;;5009370;28;20653;-60
2022/01/20 05:20:57;;;;;;;14.10;2.10;;;2.20;99.90;;;;;;4998351;28;20222;-60
2022/01/20 05:23:24;;;;;;;7.30;2.27;;;2.20;99.90;;;;;;5031663;28;20243;-60
2022/01/20 05:25:53;;;;;;;10.20;2.40;;;2.10;99.90;;;;;;5018073;28;20315;-60
2022/01/20 05:28:20;;;;;;;13.50;2.30;;;2.10;99.90;;;;;;5016648;28;20201;-60
2022/01/20 05:30:47;;;;;;;10.00;2.40;;;2.20;99.90;;;;;;4993707;28;20699;-60
2022/01/20 05:33:14;;;;;;;10.17;2.27;;;2.20;99.90;;;;;;5014091;28;20204;-60
2022/01/20 05:35:41;;;;;;;10.67;1.90;;;2.20;99.90;;;;;;4994331;28;20204;-61
2022/01/20 05:38:08;;;;;;;11.07;2.67;;;2.20;99.90;;;;;;5031000;28;20201;-61
2022/01/20 05:40:35;;;;;;;15.57;2.87;;;2.20;99.90;;;;;;5009300;28;20204;-60
2022/01/20 05:43:04;;;;;;;10.93;2.40;;;2.30;99.90;;;;;;5008380;28;20228;-60
2022/01/20 05:45:32;;;;;;;12.47;2.30;;;2.30;99.90;;;;;;5001710;28;20225;-60
2022/01/20 05:48:09;;;;;;;15.03;3.30;;;2.30;99.90;;;;;;5012600;28;20204;-61
2022/01/20 05:50:36;;;;;;;12.67;2.63;;;2.30;99.90;;;;;;5006003;28;20210;-61
2022/01/20 05:53:05;;;;;;;8.43;1.50;;;2.30;99.90;;;;;;4994672;28;20208;-60
2022/01/20 05:55:33;;;;;;;8.93;2.17;;;2.30;99.90;;;;;;5023346;28;20252;-61
2022/01/20 05:58:00;;;;;;;6.20;1.77;;;2.20;99.90;;;;;;5012538;28;20319;-60
2022/01/20 06:00:28;;;;;;;13.03;1.63;;;2.20;99.90;;;;;;5006446;28;20229;-58
2022/01/20 06:05:41;;;;;;;6.67;1.50;;;2.10;99.90;;;;;;4993582;28;20983;-59
2022/01/20 06:08:10;;;;;;;6.70;1.67;;;2.10;99.90;;;;;;5000996;28;20254;-58
2022/01/20 06:10:38;;;;;;;12.00;2.00;;;2.10;99.90;;;;;;5023324;28;20235;-58
2022/01/20 06:13:05;;;;;;;5.37;1.70;;;2.10;99.90;;;;;;5012178;28;20231;-58
2022/01/20 06:15:34;;;;;;;13.50;2.47;;;2.10;99.90;;;;;;5008405;28;20218;-59
2022/01/20 06:18:01;;;;;;;11.53;1.90;;;2.10;99.90;;;;;;5004805;28;21378;-60
2022/01/20 06:20:29;;;;;;;7.93;2.03;;;2.10;99.90;;;;;;5006391;28;20215;-60
2022/01/20 06:22:56;;;;;;;10.27;2.27;;;2.10;99.90;;;;;;5014865;28;20706;-60
2022/01/20 06:25:23;;;;;;;8.87;1.93;;;2.10;99.90;;;;;;5015600;28;20221;-60
2022/01/20 06:27:51;;;;;;;10.27;2.50;;;2.10;99.90;;;;;;5017680;28;21054;-59
2022/01/20 06:30:18;;;;;;;10.83;2.07;;;2.10;99.90;;;;;;5017909;28;20230;-60
2022/01/20 06:32:46;;;;;;;8.83;1.73;;;2.10;99.90;;;;;;5022382;28;20211;-59
2022/01/20 06:35:14;;;;;;;7.30;2.10;;;2.20;99.90;;;;;;5002870;28;20202;-60
2022/01/20 06:37:41;;;;;;;8.50;2.40;;;2.20;99.90;;;;;;5018775;28;20242;-59
2022/01/20 06:40:09;;;;;;;12.03;2.10;;;2.20;99.90;;;;;;5012725;28;20217;-60
2022/01/20 06:42:45;;;;;;;10.60;1.70;;;2.20;99.90;;;;;;5031345;28;20292;-60
2022/01/20 06:45:14;;;;;;;11.03;2.53;;;2.20;99.90;;;;;;5018483;28;20662;-60
2022/01/20 06:47:41;;;;;;;9.90;2.07;;;2.20;99.90;;;;;;5021449;28;21015;-60
2022/01/20 06:50:12;;;;;;;11.00;2.20;;;2.20;99.90;;;;;;5001904;28;20704;-60
2022/01/20 06:52:40;;;;;;;2.57;1.17;;;2.10;99.90;;;;;;5014231;28;20243;-59
2022/01/20 06:55:10;;;;;;;7.97;1.80;;;2.30;99.90;;;;;;5005782;28;20228;-60
2022/01/20 06:57:39;;;;;;;10.63;1.63;;;2.50;99.90;;;;;;5006282;28;20209;-60
2022/01/20 07:00:07;;;;;;;8.47;1.57;;;2.50;99.90;;;;;;5007032;28;20585;-60
2022/01/20 07:02:34;;;;;;;5.90;1.47;;;2.40;99.90;;;;;;5017162;28;20644;-59
2022/01/20 07:05:01;;;;;;;7.40;1.30;;;2.40;99.90;;;;;;5005035;28;20309;-60
2022/01/20 07:07:30;;;;;;;6.37;1.50;;;2.40;99.90;;;;;;5017437;28;20549;-60
2022/01/20 07:09:58;;;;;;;5.07;1.33;;;2.50;99.90;;;;;;5017687;28;20197;-59
2022/01/20 07:12:25;;;;;;;5.90;1.53;;;2.50;99.90;;;;;;5026242;28;20198;-59
2022/01/20 07:14:52;;;;;;;4.50;1.47;;;2.50;99.90;;;;;;5019996;28;20211;-60
2022/01/20 07:17:19;;;;;;;5.53;1.37;;;2.50;99.90;;;;;;5024943;28;20250;-60
2022/01/20 07:19:46;;;;;;;6.90;1.83;;;2.50;99.90;;;;;;5014757;28;20767;-60
2022/01/20 07:22:13;;;;;;;7.73;1.40;;;2.40;99.90;;;;;;4994493;28;20229;-59
2022/01/20 07:24:42;;;;;;;6.33;1.87;;;2.40;99.90;;;;;;5018337;28;20225;-60
2022/01/20 07:27:09;;;;;;;8.10;2.03;;;2.30;99.90;;;;;;5004821;28;20221;-60
2022/01/20 07:29:36;;;;;;;4.80;1.70;;;2.20;99.90;;;;;;5007324;28;20339;-59
2022/01/20 07:32:06;;;;;;;13.43;1.87;;;2.20;99.90;;;;;;5025448;28;20202;-60
2022/01/20 07:34:33;;;;;;;4.93;1.90;;;2.20;99.90;;;;;;5013272;28;20851;-59
2022/01/20 07:37:00;;;;;;;12.90;1.87;;;2.10;99.90;;;;;;4997974;28;20684;-59
2022/01/20 07:39:27;;;;;;;8.83;1.77;;;2.10;99.90;;;;;;5015953;28;20204;-60
2022/01/20 07:41:56;;;;;;;12.07;1.80;;;2.10;99.90;;;;;;5003186;28;20203;-59
2022/01/20 07:44:23;;;;;;;5.90;1.63;;;2.00;99.90;;;;;;5012675;28;20310;-59
2022/01/20 07:46:50;;;;;;;8.00;1.67;;;2.00;99.90;;;;;;5017516;28;20550;-59
2022/01/20 07:49:17;;;;;;;12.60;2.23;;;2.00;99.90;;;;;;5022627;28;20204;-60
2022/01/20 07:51:45;;;;;;;11.07;2.30;;;2.00;99.90;;;;;;4999830;28;20206;-60
2022/01/20 07:54:12;;;;;;;9.47;1.63;;;2.00;99.90;;;;;;5007256;28;20221;-59
2022/01/20 07:56:39;;;;;;;11.73;2.13;;;2.00;99.90;;;;;;5014485;28;20213;-59
2022/01/20 07:59:08;;;;;;;14.70;2.13;;;2.10;99.90;;;;;;5012468;28;20223;-59
2022/01/20 08:01:35;;;;;;;14.40;3.17;;;2.10;99.90;;;;;;5008233;28;20215;-59
2022/01/20 08:04:02;;;;;;;12.37;2.20;;;2.10;99.90;;;;;;5031143;28;20879;-60
2022/01/20 08:06:29;;;;;;;5.50;1.83;;;2.10;99.90;;;;;;5009926;28;20655;-59
2022/01/20 08:08:56;;;;;;;19.03;2.67;;;2.10;99.90;;;;;;5014384;28;20216;-60
2022/01/20 08:11:23;;;;;;;18.03;2.27;;;2.20;99.90;;;;;;5026389;28;20599;-60
2022/01/20 08:13:50;;;;;;;11.57;2.23;;;2.10;99.90;;;;;;5011006;28;20336;-59
2022/01/20 08:16:18;;;;;;;8.40;2.10;;;2.10;99.90;;;;;;5025137;28;20215;-60
2022/01/20 08:18:45;;;;;;;16.10;2.97;;;2.20;99.90;;;;;;5025901;28;20568;-60
2022/01/20 08:21:12;;;;;;;6.60;2.30;;;2.20;99.90;;;;;;5017847;28;20715;-59
2022/01/20 08:23:39;;;;;;;10.40;2.37;;;2.20;99.90;;;;;;4999606;28;20216;-59
2022/01/20 08:26:06;;;;;;;12.47;2.30;;;2.30;99.90;;;;;;5020715;28;20228;-59
2022/01/20 08:28:33;;;;;;;10.70;1.87;;;2.30;99.90;;;;;;5014554;28;20357;-60
2022/01/20 08:31:00;;;;;;;11.07;1.80;;;2.10;99.90;;;;;;5035606;28;20301;-60
2022/01/20 08:33:29;;;;;;;6.90;3.03;;;2.00;99.90;;;;;;5025715;28;20263;-60
2022/01/20 08:35:56;;;;;;;5.70;1.63;;;2.00;99.90;;;;;;5016840;28;20200;-60
2022/01/20 08:38:23;;;;;;;12.03;2.17;;;1.90;99.90;;;;;;5011440;28;20218;-59
2022/01/20 08:40:50;;;;;;;11.40;2.10;;;2.00;99.90;;;;;;5023950;28;20206;-59
2022/01/20 08:43:18;;;;;;;19.23;2.57;;;2.00;99.90;;;;;;5036206;28;20200;-60
2022/01/20 08:45:46;;;;;;;6.67;2.00;;;2.10;99.90;;;;;;5019224;28;20223;-59
2022/01/20 08:48:14;;;;;;;8.17;1.67;;;2.10;99.90;;;;;;5021413;28;20254;-59
2022/01/20 08:50:44;;;;;;;10.37;2.00;;;2.10;99.90;;;;;;5012685;28;20848;-59
2022/01/20 08:53:12;;;;;;;8.43;2.13;;;2.10;99.90;;;;;;5008023;28;20224;-59
2022/01/20 08:55:39;;;;;;;11.73;2.40;;;2.10;99.90;;;;;;5020837;28;21618;-59
2022/01/20 08:58:06;;;;;;;8.37;1.77;;;2.10;99.90;;;;;;5037812;28;20220;-60
2022/01/20 09:00:35;;;;;;;7.13;1.57;;;2.00;99.90;;;;;;5013549;28;20572;-59
2022/01/20 09:03:02;;;;;;;4.57;1.20;;;2.00;99.90;;;;;;5025935;28;20286;-59
2022/01/20 09:05:29;;;;;;;6.53;1.73;;;2.10;99.90;;;;;;5033947;28;20238;-59
2022/01/20 09:07:57;;;;;;;8.53;1.30;;;2.10;99.90;;;;;;5018279;28;20699;-59
2022/01/20 09:10:24;;;;;;;4.87;1.57;;;2.20;99.90;;;;;;5018263;28;20201;-59
2022/01/20 09:15:37;;;;;;;6.80;1.43;;;2.30;99.90;;;;;;5008816;28;20254;-59
2022/01/20 09:18:07;;;;;;;11.20;1.53;;;2.30;99.90;;;;;;5008610;28;20221;-59
2022/01/20 09:20:35;;;;;;;10.00;1.80;;;2.20;99.90;;;;;;5021766;28;20227;-59
2022/01/20 09:23:04;;;;;;;6.07;1.53;;;2.10;99.90;;;;;;5028996;28;20325;-59
2022/01/20 09:25:32;;;;;;;13.50;1.97;;;1.80;99.90;;;;;;5011219;28;20258;-59
2022/01/20 09:28:00;;;;;;;10.40;2.00;;;1.80;99.90;;;;;;5003750;28;20228;-60
2022/01/20 09:30:28;;;;;;;7.00;1.73;;;1.70;99.90;;;;;;5010684;28;21052;-59
2022/01/20 09:33:09;;;;;;;9.67;2.30;;;1.60;99.90;;;;;;5027947;28;20259;-59
2022/01/20 09:35:37;;;;;;;16.53;2.40;;;1.60;99.90;;;;;;5026232;28;20245;-59
2022/01/20 09:38:06;;;;;;;3.00;1.43;;;1.60;99.90;;;;;;5013652;28;20210;-59
2022/01/20 09:40:35;;;;;;;3.83;1.40;;;1.50;99.90;;;;;;5006616;28;20198;-59
2022/01/20 09:43:02;;;;;;;8.47;1.97;;;1.40;99.90;;;;;;5014420;28;23344;-59
2022/01/20 09:45:30;;;;;;;10.90;2.17;;;1.50;99.90;;;;;;5005226;28;20238;-59
2022/01/20 09:47:57;;;;;;;12.30;2.20;;;1.60;99.90;;;;;;5026458;28;20195;-59
2022/01/20 09:50:26;;;;;;;7.40;1.90;;;1.70;99.90;;;;;;5015074;28;20205;-59
2022/01/20 09:52:57;;;;;;;9.07;1.87;;;1.80;99.90;;;;;;5026491;28;20292;-59
2022/01/20 09:55:26;;;;;;;7.30;1.67;;;1.80;99.90;;;;;;5020364;28;20766;-59
2022/01/20 09:57:53;;;;;;;10.50;2.17;;;1.80;99.90;;;;;;5026411;28;20281;-59
2022/01/20 10:00:21;;;;;;;5.47;1.67;;;2.00;99.90;;;;;;5006680;28;20209;-60
2022/01/20 10:02:59;;;;;;;11.83;1.87;;;2.20;99.90;;;;;;5028859;28;20688;-60
2022/01/20 10:05:28;;;;;;;16.43;2.37;;;2.30;99.90;;;;;;5031611;28;20313;-59
2022/01/20 10:08:05;;;;;;;5.70;1.20;;;2.50;99.90;;;;;;5035658;28;20196;-59
2022/01/20 10:10:48;;;;;;;6.10;1.90;;;2.60;99.90;;;;;;5020530;28;20201;-59
2022/01/20 10:13:17;;;;;;;13.47;2.00;;;2.80;99.90;;;;;;5035401;28;20193;-59
2022/01/20 10:15:56;;;;;;;7.87;1.73;;;2.90;99.90;;;;;;5005699;28;20720;-60
2022/01/20 10:18:23;;;;;;;17.93;2.90;;;3.00;99.90;;;;;;5012903;28;20584;-60
2022/01/20 10:20:53;;;;;;;8.77;2.10;;;3.10;99.90;;;;;;5018833;28;20204;-59
2022/01/20 10:23:35;;;;;;;4.87;1.60;;;3.20;99.90;;;;;;5018177;28;20230;-59
2022/01/20 10:26:12;;;;;;;10.33;1.53;;;3.30;99.90;;;;;;5012206;28;20616;-60
2022/01/20 10:28:48;;;;;;;8.00;1.80;;;3.30;99.90;;;;;;5028874;28;20201;-59
2022/01/20 10:31:16;;;;;;;15.53;2.27;;;3.30;99.90;;;;;;5007214;28;20202;-59
2022/01/20 10:33:43;;;;;;;12.40;2.20;;;3.30;99.90;;;;;;5012235;28;20210;-59
2022/01/20 10:36:12;;;;;;;15.37;2.37;;;3.40;99.90;;;;;;5015848;28;20288;-60
2022/01/20 10:38:49;;;;;;;6.67;1.63;;;3.50;99.90;;;;;;5009519;28;20218;-60
2022/01/20 10:41:32;;;;;;;3.70;1.47;;;3.60;99.90;;;;;;5013409;28;20226;-59
2022/01/20 10:44:05;;;;;;;4.13;1.53;;;2.90;99.90;;;;;;5010461;28;20702;-59
2022/01/20 10:46:43;;;;;;;5.03;1.00;;;2.30;99.90;;;;;;5016496;28;20227;-59
2022/01/20 10:49:10;;;;;;;3.17;1.50;;;2.00;99.90;;;;;;5003894;28;20213;-61
2022/01/20 10:51:37;;;;;;;4.57;1.00;;;2.00;99.90;;;;;;5015458;28;20289;-59
2022/01/20 10:54:06;;;;;;;5.20;0.80;;;2.10;99.90;;;;;;5026488;28;20213;-60
2022/01/20 10:56:47;;;;;;;9.07;1.10;;;2.30;99.90;;;;;;5034210;28;20196;-60
2022/01/20 10:59:14;;;;;;;6.90;1.23;;;2.30;99.90;;;;;;5007510;28;20614;-59
2022/01/20 11:01:41;;;;;;;4.20;1.43;;;2.40;99.90;;;;;;5018853;28;20205;-60
2022/01/20 11:04:10;;;;;;;8.20;1.20;;;2.50;99.90;;;;;;4988056;28;20795;-60
2022/01/20 11:06:37;;;;;;;5.07;1.30;;;2.50;99.90;;;;;;5030822;28;20224;-60
2022/01/20 11:09:07;;;;;;;8.03;1.90;;;2.60;99.90;;;;;;4996521;28;21367;-61
2022/01/20 11:11:36;;;;;;;9.50;2.23;;;2.70;99.90;;;;;;5023968;28;20226;-60
2022/01/20 11:14:05;;;;;;;8.10;1.57;;;2.90;99.90;;;;;;5010684;28;20222;-59
2022/01/20 11:16:39;;;;;;;10.57;2.13;;;3.10;99.90;;;;;;5009962;28;30660;-59
2022/01/20 11:19:15;;;;;;;6.73;1.63;;;3.30;99.90;;;;;;5010891;28;20230;-61
2022/01/20 11:21:44;;;;;;;12.77;1.73;;;3.40;99.90;;;;;;5007441;28;20308;-61
2022/01/20 11:24:18;;;;;;;3.27;1.40;;;3.40;99.90;;;;;;5019329;28;20198;-59
2022/01/20 11:26:56;;;;;;;8.63;1.73;;;3.50;99.90;;;;;;5016711;28;20232;-60
2022/01/20 11:29:38;;;;;;;6.00;1.77;;;3.50;99.90;;;;;;4999740;28;20231;-60
2022/01/20 11:32:16;;;;;;;10.50;1.90;;;3.40;99.90;;;;;;5022598;28;20239;-60
2022/01/20 11:34:55;;;;;;;15.23;2.80;;;3.40;99.90;;;;;;4986310;28;20213;-60
2022/01/20 11:37:23;;;;;;;8.60;1.83;;;3.40;99.90;;;;;;5018845;28;20581;-59
2022/01/20 11:39:52;;;;;;;7.87;1.80;;;3.40;99.90;;;;;;5011484;28;20218;-59
2022/01/20 11:42:24;;;;;;;14.90;1.60;;;3.50;99.90;;;;;;5022210;28;20583;-59
2022/01/20 11:44:53;;;;;;;9.03;1.63;;;3.50;99.90;;;;;;5003757;28;20256;-60
2022/01/20 11:47:31;;;;;;;5.53;1.43;;;3.60;99.90;;;;;;5014644;28;20231;-59
2022/01/20 11:49:59;;;;;;;7.77;1.27;;;3.60;99.90;;;;;;4999503;28;20215;-59
2022/01/20 11:52:27;;;;;;;6.47;1.63;;;3.70;99.90;;;;;;5032149;28;20735;-59
2022/01/20 11:54:54;;;;;;;8.60;1.73;;;3.80;99.90;;;;;;5004340;28;20202;-59
2022/01/20 11:57:28;;;;;;;12.60;1.90;;;3.90;99.90;;;;;;5014568;28;20217;-60
2022/01/20 12:00:00;;;;;;;12.33;2.00;;;4.00;99.90;;;;;;5017451;28;20208;-60
2022/01/20 12:02:31;;;;;;;4.70;1.57;;;4.10;99.90;;;;;;5012817;28;21709;-59
2022/01/20 12:04:59;;;;;;;6.03;1.77;;;4.00;99.90;;;;;;5013849;28;20211;-60
2022/01/20 12:07:28;;;;;;;8.43;1.73;;;4.00;99.90;;;;;;5002461;28;20235;-59
2022/01/20 12:10:09;;;;;;;6.87;1.50;;;3.90;99.90;;;;;;5031238;28;20702;-59
2022/01/20 12:12:38;;;;;;;6.40;1.53;;;3.80;99.90;;;;;;5034335;28;20767;-59
2022/01/20 12:15:11;;;;;;;7.07;1.50;;;3.70;99.90;;;;;;4999034;28;20242;-59
2022/01/20 12:17:41;;;;;;;9.53;1.83;;;3.70;99.90;;;;;;5010548;28;20212;-59
2022/01/20 12:20:11;;;;;;;3.63;1.90;;;3.70;99.90;;;;;;5015366;28;21264;-59
2022/01/20 12:22:43;;;;;;;10.43;2.07;;;3.70;99.90;;;;;;5016259;28;20294;-61
2022/01/20 12:25:17;;;;;;;10.40;1.60;;;3.70;99.90;;;;;;5024585;28;20204;-59
2022/01/20 12:27:44;;;;;;;6.67;1.77;;;3.80;99.90;;;;;;4997052;28;20211;-60
2022/01/20 12:30:25;;;;;;;8.47;1.97;;;3.70;99.90;;;;;;5014155;28;20309;-59
2022/01/20 12:33:00;;;;;;;16.17;2.17;;;3.60;99.90;;;;;;5015500;28;20722;-59
2022/01/20 12:35:40;;;;;;;10.40;1.60;;;3.50;99.90;;;;;;5019774;28;20216;-59
2022/01/20 12:38:22;;;;;;;15.23;2.43;;;3.40;99.90;;;;;;5002897;28;20220;-59
2022/01/20 12:41:03;;;;;;;16.40;1.93;;;3.40;99.90;;;;;;5029028;28;20282;-59
2022/01/20 12:43:42;;;;;;;6.40;1.10;;;3.40;99.90;;;;;;5006691;28;21575;-59
2022/01/20 12:46:12;;;;;;;10.60;1.37;;;3.50;99.90;;;;;;5015502;28;20234;-59
2022/01/20 12:48:50;;;;;;;5.43;1.60;;;3.50;99.90;;;;;;5030033;28;20204;-59
2022/01/20 12:51:18;;;;;;;2.03;0.73;;;3.40;99.90;;;;;;5010214;28;20207;-59
2022/01/20 12:53:54;;;;;;;2.87;0.90;;;3.40;99.90;;;;;;5014406;28;20215;-59
2022/01/20 12:56:30;;;;;;;4.87;1.30;;;3.20;99.90;;;;;;5020493;28;20207;-59
2022/01/20 12:58:57;;;;;;;4.07;1.27;;;3.00;99.90;;;;;;5013541;28;20968;-59
2022/01/20 13:01:26;;;;;;;6.73;1.70;;;3.00;99.90;;;;;;5000250;28;25043;-59
2022/01/20 13:03:53;;;;;;;3.67;1.17;;;3.00;99.90;;;;;;5031121;28;20205;-59
2022/01/20 13:06:27;;;;;;;7.83;1.63;;;2.90;99.90;;;;;;5020166;28;20221;-60
2022/01/20 13:08:59;;;;;;;6.83;1.60;;;2.90;99.90;;;;;;4993114;28;20355;-59
2022/01/20 13:11:31;;;;;;;6.37;1.73;;;3.00;99.90;;;;;;5026168;28;20271;-59
2022/01/20 13:14:00;;;;;;;8.47;2.00;;;3.00;99.90;;;;;;5015395;28;20207;-60
2022/01/20 13:16:28;;;;;;;8.40;2.10;;;3.00;99.90;;;;;;5014485;28;20226;-60
2022/01/20 13:18:57;;;;;;;6.53;1.90;;;3.00;99.90;;;;;;5021479;28;20202;-60
2022/01/20 13:21:38;;;;;;;5.33;1.43;;;3.10;99.90;;;;;;5027328;28;20227;-60
2022/01/20 13:24:08;;;;;;;11.70;1.60;;;3.20;99.90;;;;;;4997915;28;20210;-60
2022/01/20 13:26:49;;;;;;;7.90;2.07;;;3.20;99.90;;;;;;5010300;28;20597;-59
2022/01/20 13:29:16;;;;;;;10.97;2.30;;;3.20;99.90;;;;;;5005804;28;20215;-59
2022/01/20 13:31:45;;;;;;;14.40;2.30;;;3.20;99.90;;;;;;5017060;28;20203;-60
2022/01/20 13:34:14;;;;;;;11.37;2.23;;;3.20;99.90;;;;;;5006616;28;20725;-59
2022/01/20 13:36:44;;;;;;;10.87;3.10;;;3.20;99.90;;;;;;5010458;28;20229;-59
2022/01/20 13:39:12;;;;;;;13.67;2.80;;;3.20;99.90;;;;;;5004448;28;20233;-60
2022/01/20 13:41:41;;;;;;;10.23;2.33;;;3.20;99.90;;;;;;5002924;28;20228;-60
2022/01/20 13:47:10;;;;;;;2.07;0.93;;;3.20;99.90;;;;;;5017434;28;20233;-59
2022/01/20 13:49:49;;;;;;;1.00;0.50;;;2.40;99.90;;;;;;4997129;28;20210;-60
2022/01/20 13:52:19;;;;;;;2.90;0.80;;;1.90;99.90;;;;;;5020627;28;20233;-60
2022/01/20 13:54:49;;;;;;;4.17;0.50;;;1.50;99.90;;;;;;4992436;28;20399;-59
2022/01/20 13:57:17;;;;;;;2.93;0.73;;;1.50;99.90;;;;;;4989616;28;20218;-60
2022/01/20 13:59:53;;;;;;;1.67;0.50;;;1.70;99.90;;;;;;4997822;28;20348;-59
2022/01/20 14:02:22;;;;;;;1.13;0.63;;;1.90;99.90;;;;;;5021711;28;20203;-60
2022/01/20 14:04:50;;;;;;;9.83;1.13;;;2.00;99.90;;;;;;5008678;28;20218;-60
2022/01/20 14:07:18;;;;;;;3.20;0.73;;;2.00;99.90;;;;;;5009810;28;20227;-60
2022/01/20 14:09:45;;;;;;;10.27;1.23;;;2.10;99.90;;;;;;5001501;28;20721;-60